createdAt,value
2022-11-30T00:00:37.670Z,100830.31
2022-11-30T00:03:04.988Z,100834.72
2022-11-30T00:05:31.707Z,100834.72
2022-11-30T00:08:01.542Z,100825.06
2022-11-30T00:10:28.154Z,100825.75
2022-11-30T00:12:54.812Z,100820.47
2022-11-30T00:15:21.347Z,100816.25
2022-11-30T00:17:48.305Z,100806.81
2022-11-30T00:20:16.045Z,100806.91
2022-11-30T00:22:42.998Z,100832.81
2022-11-30T00:25:10.221Z,100823.28
2022-11-30T00:27:36.841Z,100837.31
2022-11-30T00:30:03.599Z,100826.81
2022-11-30T00:32:30.183Z,100824.91
2022-11-30T00:34:56.831Z,100826.78
2022-11-30T00:37:23.560Z,100822.53
2022-11-30T00:39:50.172Z,100823.44
2022-11-30T00:42:16.816Z,100815.53
2022-11-30T00:44:43.493Z,100824.31
2022-11-30T00:47:10.162Z,100796.66
2022-11-30T00:49:36.799Z,100829.59
2022-11-30T00:52:04.271Z,100828.94
2022-11-30T00:54:30.952Z,100822.03
2022-11-30T00:56:57.562Z,100822.09
2022-11-30T00:59:24.137Z,100824.72
2022-11-30T01:01:50.755Z,100816.97
2022-11-30T01:04:17.352Z,100812.56
2022-11-30T01:06:43.925Z,100815.09
2022-11-30T01:09:10.648Z,100820.44
2022-11-30T01:11:37.279Z,100816.03
2022-11-30T01:14:04.160Z,100818.66
2022-11-30T01:16:32.992Z,100827.38
2022-11-30T01:19:00.048Z,100825.53
2022-11-30T01:21:28.627Z,100833.31
2022-11-30T01:23:56.100Z,100830.72
2022-11-30T01:26:23.451Z,100822.91
2022-11-30T01:28:54.508Z,100823.81
2022-11-30T01:31:23.772Z,100826.50
2022-11-30T01:33:52.536Z,100798.81
2022-11-30T01:36:21.706Z,100813.44
2022-11-30T01:38:51.055Z,100822.22
2022-11-30T01:41:21.916Z,100817.81
2022-11-30T01:43:52.386Z,100828.34
2022-11-30T01:46:42.340Z,100810.09
2022-11-30T01:49:08.829Z,100831.53
2022-11-30T01:51:40.671Z,100819.31
2022-11-30T01:54:10.836Z,100803.78
2022-11-30T01:56:45.052Z,100826.19
2022-11-30T01:59:11.831Z,100823.47
2022-11-30T02:01:38.416Z,100826.22
2022-11-30T02:04:20.797Z,100802.88
2022-11-30T02:06:48.194Z,100829.75
2022-11-30T02:09:16.568Z,100824.59
2022-11-30T02:11:43.088Z,100826.38
2022-11-30T02:14:23.621Z,100831.63
2022-11-30T02:17:08.565Z,100840.34
2022-11-30T02:20:06.727Z,100836.88
2022-11-30T02:22:38.916Z,100841.13
2022-11-30T02:25:20.098Z,100844.63
2022-11-30T02:28:07.391Z,100846.31
2022-11-30T02:30:37.715Z,100823.53
2022-11-30T02:33:11.910Z,100807.84
2022-11-30T02:35:42.595Z,100833.72
2022-11-30T02:38:09.337Z,100832.78
2022-11-30T02:40:35.982Z,100831.09
2022-11-30T02:43:04.985Z,100829.38
2022-11-30T02:45:38.117Z,100825.19
2022-11-30T02:48:09.841Z,100837.22
2022-11-30T02:50:45.849Z,100813.88
2022-11-30T02:53:13.289Z,100837.22
2022-11-30T02:55:40.166Z,100837.28
2022-11-30T02:58:06.946Z,100812.16
2022-11-30T03:00:33.633Z,100839.09
2022-11-30T03:03:00.227Z,100839.97
2022-11-30T03:05:26.832Z,100830.41
2022-11-30T03:07:53.444Z,100836.47
2022-11-30T03:10:20.062Z,100837.41
2022-11-30T03:12:46.593Z,100847.84
2022-11-30T03:15:13.138Z,100835.84
2022-11-30T03:17:39.788Z,100843.66
2022-11-30T03:20:07.530Z,100854.97
2022-11-30T03:22:34.096Z,100854.94
2022-11-30T03:25:00.612Z,100861.06
2022-11-30T03:27:27.116Z,100850.59
2022-11-30T03:29:53.742Z,100853.19
2022-11-30T03:32:20.255Z,100829.09
2022-11-30T03:34:46.908Z,100852.47
2022-11-30T03:37:13.630Z,100855.94
2022-11-30T03:39:40.239Z,100849.81
2022-11-30T03:42:06.787Z,100852.47
2022-11-30T03:44:33.333Z,100858.66
2022-11-30T03:46:59.840Z,100830.94
2022-11-30T03:49:26.448Z,100862.06
2022-11-30T03:51:52.983Z,100859.44
2022-11-30T03:54:19.557Z,100849.03
2022-11-30T03:56:46.142Z,100862.16
2022-11-30T03:59:12.674Z,100843.13
2022-11-30T04:01:42.778Z,100855.25
2022-11-30T04:04:09.647Z,100862.19
2022-11-30T04:06:36.171Z,100827.56
2022-11-30T04:09:02.972Z,100859.72
2022-11-30T04:11:29.770Z,100860.59
2022-11-30T04:13:56.304Z,100862.19
2022-11-30T04:16:22.967Z,100858.66
2022-11-30T04:18:49.608Z,100851.75
2022-11-30T04:21:16.204Z,100857.88
2022-11-30T04:23:42.735Z,100836.19
2022-11-30T04:26:13.156Z,100858.72
2022-11-30T04:28:40.174Z,100866.50
2022-11-30T04:31:06.898Z,100869.94
2022-11-30T04:33:33.502Z,100854.19
2022-11-30T04:36:03.298Z,100869.84
2022-11-30T04:38:30.454Z,100862.81
2022-11-30T04:40:57.089Z,100867.16
2022-11-30T04:43:24.037Z,100867.09
2022-11-30T04:45:51.248Z,100863.53
2022-11-30T04:48:18.974Z,100865.28
2022-11-30T04:50:45.588Z,100866.25
2022-11-30T04:53:12.174Z,100860.13
2022-11-30T04:55:38.797Z,100834.03
2022-11-30T04:58:06.127Z,100866.16
2022-11-30T05:00:34.560Z,100862.63
2022-11-30T05:03:01.115Z,100857.41
2022-11-30T05:05:27.851Z,100863.53
2022-11-30T05:07:58.966Z,100868.72
2022-11-30T05:10:26.891Z,100869.63
2022-11-30T05:12:53.511Z,100864.31
2022-11-30T05:15:20.614Z,100866.16
2022-11-30T05:17:47.145Z,100860.91
2022-11-30T05:20:13.692Z,100873.16
2022-11-30T05:22:40.457Z,100867.03
2022-11-30T05:25:07.962Z,100876.66
2022-11-30T05:27:35.387Z,100881.06
2022-11-30T05:30:02.350Z,100874.94
2022-11-30T05:32:28.914Z,100877.56
2022-11-30T05:34:55.847Z,100868.09
2022-11-30T05:37:22.498Z,100880.03
2022-11-30T05:39:49.086Z,100886.06
2022-11-30T05:42:15.758Z,100879.97
2022-11-30T05:44:42.400Z,100855.78
2022-11-30T05:47:09.343Z,100874.72
2022-11-30T05:49:35.984Z,100872.84
2022-11-30T05:52:02.503Z,100853.88
2022-11-30T05:54:29.095Z,100882.53
2022-11-30T05:56:55.587Z,100892.09
2022-11-30T05:59:23.232Z,100887.72
2022-11-30T06:01:52.703Z,100887.69
2022-11-30T06:04:19.673Z,100867.88
2022-11-30T06:06:46.296Z,100892.09
2022-11-30T06:09:12.913Z,100890.38
2022-11-30T06:11:39.467Z,100891.16
2022-11-30T06:14:06.094Z,100886.84
2022-11-30T06:16:32.697Z,100893.84
2022-11-30T06:18:59.282Z,100885.94
2022-11-30T06:21:25.817Z,100893.91
2022-11-30T06:23:52.735Z,100889.50
2022-11-30T06:26:19.570Z,100892.94
2022-11-30T06:28:48.774Z,100900.84
2022-11-30T06:31:16.296Z,100891.13
2022-11-30T06:33:43.390Z,100876.63
2022-11-30T06:36:10.325Z,100897.53
2022-11-30T06:38:37.281Z,100899.28
2022-11-30T06:41:06.094Z,100910.66
2022-11-30T06:43:36.799Z,100905.41
2022-11-30T06:46:03.889Z,100902.59
2022-11-30T06:48:30.699Z,100905.16
2022-11-30T06:50:58.496Z,100910.44
2022-11-30T06:53:25.344Z,100913.94
2022-11-30T06:55:52.365Z,100862.88
2022-11-30T06:58:19.162Z,100912.09
2022-11-30T07:00:45.873Z,100899.94
2022-11-30T07:03:12.914Z,100917.28
2022-11-30T07:05:43.883Z,100917.31
2022-11-30T07:08:11.354Z,100918.31
2022-11-30T07:10:42.198Z,100920.09
2022-11-30T07:13:14.183Z,100920.19
2022-11-30T07:15:41.907Z,100916.72
2022-11-30T07:18:09.220Z,100921.06
2022-11-30T07:20:36.374Z,100919.44
2022-11-30T07:23:23.314Z,100927.25
2022-11-30T07:26:06.686Z,100915.78
2022-11-30T07:28:36.004Z,100924.53
2022-11-30T07:31:16.545Z,100918.44
2022-11-30T07:33:43.570Z,100914.84
2022-11-30T07:36:10.322Z,100920.19
2022-11-30T07:38:37.390Z,100901.16
2022-11-30T07:41:04.152Z,100902.91
2022-11-30T07:43:30.872Z,100929.78
2022-11-30T07:45:57.591Z,100928.91
2022-11-30T07:48:24.191Z,100931.50
2022-11-30T07:50:51.137Z,100932.38
2022-11-30T07:53:17.945Z,100934.94
2022-11-30T07:55:44.800Z,100930.59
2022-11-30T07:58:17.153Z,100936.66
2022-11-30T08:00:44.231Z,100941.22
2022-11-30T08:03:10.812Z,100941.09
2022-11-30T08:05:37.402Z,100929.88
2022-11-30T08:08:03.931Z,100941.94
2022-11-30T08:10:30.644Z,100936.72
2022-11-30T08:12:57.140Z,100936.59
2022-11-30T08:15:30.567Z,100944.50
2022-11-30T08:18:05.286Z,100940.97
2022-11-30T08:20:31.867Z,100920.22
2022-11-30T08:22:58.802Z,100947.06
2022-11-30T08:25:25.348Z,100938.38
2022-11-30T08:27:51.892Z,100940.13
2022-11-30T08:30:18.455Z,100947.22
2022-11-30T08:32:45.056Z,100924.81
2022-11-30T08:35:11.814Z,100951.72
2022-11-30T08:37:38.777Z,100937.63
2022-11-30T08:40:06.496Z,100949.81
2022-11-30T08:42:33.311Z,100934.09
2022-11-30T08:45:00.492Z,100938.41
2022-11-30T08:47:30.124Z,100941.75
2022-11-30T08:49:57.999Z,100920.34
2022-11-30T08:52:24.918Z,100957.59
2022-11-30T08:54:51.679Z,100936.78
2022-11-30T08:57:20.787Z,100954.88
2022-11-30T08:59:47.896Z,100947.06
2022-11-30T09:02:19.627Z,100961.84
2022-11-30T09:04:49.108Z,100962.63
2022-11-30T09:07:16.084Z,100962.56
2022-11-30T09:09:42.658Z,100951.25
2022-11-30T09:12:09.485Z,100960.03
2022-11-30T09:14:36.140Z,100966.06
2022-11-30T09:17:03.077Z,100965.16
2022-11-30T09:19:29.575Z,100962.59
2022-11-30T09:21:56.080Z,100949.59
2022-11-30T09:24:22.749Z,100974.69
2022-11-30T09:26:49.312Z,100978.28
2022-11-30T09:29:15.817Z,100960.06
2022-11-30T09:31:42.337Z,100977.47
2022-11-30T09:34:11.380Z,100952.34
2022-11-30T09:36:38.272Z,100979.03
2022-11-30T09:39:04.772Z,100983.28
2022-11-30T09:41:34.273Z,100982.28
2022-11-30T09:44:28.151Z,100977.84
2022-11-30T09:47:32.549Z,100976.78
2022-11-30T09:50:04.826Z,100974.91
2022-11-30T09:52:37.806Z,100966.94
2022-11-30T09:55:13.971Z,100968.53
2022-11-30T09:57:50.644Z,100974.59
2022-11-30T10:00:21.873Z,100963.34
2022-11-30T10:02:53.529Z,100932.88
2022-11-30T10:05:23.550Z,100968.91
2022-11-30T10:08:17.995Z,100976.56
2022-11-30T10:11:03.178Z,100977.66
2022-11-30T10:13:55.317Z,100969.34
2022-11-30T10:16:46.426Z,100971.06
2022-11-30T10:19:18.627Z,100971.97
2022-11-30T10:22:31.080Z,100976.38
2022-11-30T10:25:00.179Z,100938.25
2022-11-30T10:27:52.141Z,100974.75
2022-11-30T10:30:24.633Z,100983.56
2022-11-30T10:32:54.307Z,100969.75
2022-11-30T10:35:34.821Z,100978.63
2022-11-30T10:38:19.761Z,100981.38
2022-11-30T10:40:57.214Z,100966.59
2022-11-30T10:43:30.152Z,100971.84
2022-11-30T10:45:56.829Z,100972.66
2022-11-30T10:48:47.505Z,100957.75
2022-11-30T10:51:14.371Z,100965.53
2022-11-30T10:53:41.152Z,100940.91
2022-11-30T10:56:12.885Z,100932.19
2022-11-30T10:58:56.757Z,100970.34
2022-11-30T11:01:36.136Z,100971.25
2022-11-30T11:04:23.920Z,100962.59
2022-11-30T11:07:09.278Z,100951.47
2022-11-30T11:09:37.149Z,100965.41
2022-11-30T11:12:25.574Z,100959.31
2022-11-30T11:15:10.633Z,100965.44
2022-11-30T11:17:37.228Z,100960.03
2022-11-30T11:20:04.511Z,100943.38
2022-11-30T11:22:31.607Z,100954.69
2022-11-30T11:25:43.215Z,100959.09
2022-11-30T11:28:18.816Z,100953.94
2022-11-30T11:30:45.404Z,100953.94
2022-11-30T11:33:12.082Z,100956.53
2022-11-30T11:35:53.361Z,100960.94
2022-11-30T11:38:29.568Z,100952.13
2022-11-30T11:41:02.716Z,100962.66
2022-11-30T11:43:40.822Z,100924.22
2022-11-30T11:46:13.853Z,100950.91
2022-11-30T11:48:46.064Z,100949.75
2022-11-30T11:51:13.954Z,100951.09
2022-11-30T11:53:54.852Z,100946.38
2022-11-30T11:56:28.363Z,100952.16
2022-11-30T11:59:00.532Z,100932.13
2022-11-30T12:01:42.108Z,100944.16
2022-11-30T12:04:48.237Z,100944.41
2022-11-30T12:07:24.155Z,100947.38
2022-11-30T12:10:03.057Z,100949.97
2022-11-30T12:12:29.651Z,100926.81
2022-11-30T12:14:56.603Z,100923.59
2022-11-30T12:17:52.116Z,100954.81
2022-11-30T12:20:47.731Z,100950.28
2022-11-30T12:23:45.179Z,100909.31
2022-11-30T12:26:36.022Z,100953.56
2022-11-30T12:29:18.470Z,100942.41
2022-11-30T12:32:10.740Z,100952.06
2022-11-30T12:34:48.106Z,100948.41
2022-11-30T12:37:41.695Z,100953.63
2022-11-30T12:40:38.280Z,100944.84
2022-11-30T12:43:23.318Z,100943.09
2022-11-30T12:45:56.006Z,100940.44
2022-11-30T12:48:31.843Z,100957.94
2022-11-30T12:51:30.153Z,100950.06
2022-11-30T12:53:59.805Z,100953.53
2022-11-30T12:56:29.159Z,100957.09
2022-11-30T12:59:06.964Z,100960.84
2022-11-30T13:02:00.732Z,100958.28
2022-11-30T13:04:59.031Z,100953.09
2022-11-30T13:07:43.805Z,100949.63
2022-11-30T13:10:26.675Z,100956.66
2022-11-30T13:12:55.961Z,100958.56
2022-11-30T13:15:25.745Z,100950.78
2022-11-30T13:17:53.585Z,100949.84
2022-11-30T13:20:32.782Z,100952.66
2022-11-30T13:23:13.936Z,100952.66
2022-11-30T13:26:08.947Z,100948.19
2022-11-30T13:29:06.426Z,100953.19
2022-11-30T13:31:46.095Z,100958.38
2022-11-30T13:34:30.212Z,100953.91
2022-11-30T13:37:03.339Z,100920.00
2022-11-30T13:39:42.954Z,100951.22
2022-11-30T13:42:24.469Z,100946.81
2022-11-30T13:44:51.322Z,100947.81
2022-11-30T13:47:36.258Z,100929.69
2022-11-30T13:50:09.455Z,100951.41
2022-11-30T13:53:17.293Z,100961.81
2022-11-30T13:55:51.921Z,100928.00
2022-11-30T13:58:19.930Z,100949.53
2022-11-30T14:01:31.946Z,100953.13
2022-11-30T14:04:20.193Z,100954.94
2022-11-30T14:06:52.903Z,100947.88
2022-11-30T14:09:40.920Z,100953.16
2022-11-30T14:12:37.230Z,100953.34
2022-11-30T14:15:38.751Z,100956.91
2022-11-30T14:18:21.957Z,100969.25
2022-11-30T14:21:12.618Z,100965.59
2022-11-30T14:23:39.199Z,100960.28
2022-11-30T14:26:13.485Z,100955.25
2022-11-30T14:28:46.179Z,100965.00
2022-11-30T14:31:20.634Z,100951.84
2022-11-30T14:34:02.634Z,100968.38
2022-11-30T14:36:37.752Z,100971.16
2022-11-30T14:39:04.700Z,100972.94
2022-11-30T14:41:32.127Z,100975.63
2022-11-30T14:44:11.951Z,100960.94
2022-11-30T14:46:38.722Z,100974.78
2022-11-30T14:49:15.715Z,100972.13
2022-11-30T14:51:44.988Z,100965.25
2022-11-30T14:54:27.190Z,100960.00
2022-11-30T14:57:14.787Z,100965.25
2022-11-30T14:59:53.830Z,100966.22
2022-11-30T15:02:31.061Z,100937.66
2022-11-30T15:04:59.531Z,100964.41
2022-11-30T15:07:27.940Z,100963.47
2022-11-30T15:10:08.291Z,100971.28
2022-11-30T15:12:35.438Z,100972.28
2022-11-30T15:15:14.670Z,100964.44
2022-11-30T15:17:48.094Z,100967.94
2022-11-30T15:20:18.758Z,100967.09
2022-11-30T15:22:45.269Z,100970.63
2022-11-30T15:25:12.741Z,100965.41
2022-11-30T15:27:39.765Z,100951.66
2022-11-30T15:30:07.361Z,100973.38
2022-11-30T15:32:34.105Z,100950.88
2022-11-30T15:35:01.069Z,100975.91
2022-11-30T15:37:33.554Z,100969.81
2022-11-30T15:40:02.893Z,100968.00
2022-11-30T15:42:39.931Z,100897.94
2022-11-30T15:45:29.760Z,100979.44
2022-11-30T15:47:57.714Z,100981.19
2022-11-30T15:50:28.615Z,100981.22
2022-11-30T15:53:02.866Z,100980.44
2022-11-30T15:55:51.593Z,100992.72
2022-11-30T15:58:30.085Z,100993.69
2022-11-30T16:01:05.908Z,100996.44
2022-11-30T16:03:34.109Z,100962.63
2022-11-30T16:06:04.834Z,100999.06
2022-11-30T16:08:31.828Z,100992.91
2022-11-30T16:11:01.918Z,101000.94
2022-11-30T16:13:31.628Z,100998.38
2022-11-30T16:16:00.575Z,100998.41
2022-11-30T16:18:28.295Z,101002.91
2022-11-30T16:20:59.952Z,101006.53
2022-11-30T16:23:27.646Z,100990.19
2022-11-30T16:25:54.193Z,101000.63
2022-11-30T16:28:22.448Z,101007.56
2022-11-30T16:30:49.810Z,101010.28
2022-11-30T16:33:19.727Z,101008.63
2022-11-30T16:36:03.067Z,101020.72
2022-11-30T16:38:29.918Z,100981.63
2022-11-30T16:41:15.194Z,101010.28
2022-11-30T16:43:42.619Z,101020.59
2022-11-30T16:46:24.380Z,101017.91
2022-11-30T16:48:51.877Z,101022.38
2022-11-30T16:51:27.654Z,101027.66
2022-11-30T16:53:54.637Z,101027.66
2022-11-30T16:56:21.911Z,101026.84
2022-11-30T16:58:49.183Z,101030.41
2022-11-30T17:01:34.874Z,101037.59
2022-11-30T17:04:23.780Z,101039.34
2022-11-30T17:06:53.609Z,101032.41
2022-11-30T17:09:23.144Z,101038.50
2022-11-30T17:11:51.191Z,101039.53
2022-11-30T17:14:19.366Z,101050.03
2022-11-30T17:16:46.019Z,101043.97
2022-11-30T17:19:12.834Z,101041.38
2022-11-30T17:21:40.266Z,101058.91
2022-11-30T17:24:07.323Z,101024.00
2022-11-30T17:26:34.077Z,101057.84
2022-11-30T17:29:00.645Z,101054.41
2022-11-30T17:31:28.095Z,101057.16
2022-11-30T17:33:54.743Z,101048.47
2022-11-30T17:36:21.299Z,101060.69
2022-11-30T17:38:47.849Z,101033.81
2022-11-30T17:41:19.310Z,101062.44
2022-11-30T17:43:46.844Z,101066.81
2022-11-30T17:46:16.026Z,101065.22
2022-11-30T17:48:43.863Z,101053.09
2022-11-30T17:51:12.244Z,101064.47
2022-11-30T17:53:39.889Z,101062.78
2022-11-30T17:56:15.606Z,101067.19
2022-11-30T17:58:44.442Z,101064.66
2022-11-30T18:01:26.074Z,101067.19
2022-11-30T18:03:53.699Z,101057.63
2022-11-30T18:06:20.657Z,101038.50
2022-11-30T18:08:48.366Z,101061.13
2022-11-30T18:11:18.970Z,101038.69
2022-11-30T18:13:45.549Z,101066.44
2022-11-30T18:16:15.670Z,101061.19
2022-11-30T18:18:47.393Z,101071.66
2022-11-30T18:21:17.068Z,101073.47
2022-11-30T18:23:43.943Z,101071.66
2022-11-30T18:26:13.346Z,101070.84
2022-11-30T18:28:40.049Z,101075.09
2022-11-30T18:31:07.054Z,101072.56
2022-11-30T18:33:34.780Z,101078.63
2022-11-30T18:36:02.339Z,101081.34
2022-11-30T18:38:34.189Z,101085.63
2022-11-30T18:41:04.107Z,101086.38
2022-11-30T18:43:31.738Z,101080.25
2022-11-30T18:46:10.004Z,101084.66
2022-11-30T18:48:37.909Z,101069.03
2022-11-30T18:51:12.930Z,101085.56
2022-11-30T18:53:39.622Z,101081.25
2022-11-30T18:56:14.798Z,101090.84
2022-11-30T18:58:42.314Z,101095.25
2022-11-30T19:01:18.164Z,101089.13
2022-11-30T19:03:50.632Z,101084.84
2022-11-30T19:06:17.385Z,101082.31
2022-11-30T19:08:43.948Z,101093.63
2022-11-30T19:11:10.533Z,101063.22
2022-11-30T19:13:37.356Z,101082.25
2022-11-30T19:16:06.403Z,101088.44
2022-11-30T19:18:33.516Z,101097.19
2022-11-30T19:21:00.295Z,101092.00
2022-11-30T19:23:27.314Z,101101.66
2022-11-30T19:26:00.117Z,101108.59
2022-11-30T19:28:30.008Z,101080.78
2022-11-30T19:30:57.493Z,101102.50
2022-11-30T19:33:24.247Z,101110.38
2022-11-30T19:35:50.772Z,101105.06
2022-11-30T19:38:17.592Z,101110.22
2022-11-30T19:40:44.418Z,101106.81
2022-11-30T19:43:11.078Z,101108.66
2022-11-30T19:45:37.713Z,101107.81
2022-11-30T19:48:04.506Z,101109.56
2022-11-30T19:50:34.414Z,101107.81
2022-11-30T19:53:00.992Z,101113.91
2022-11-30T19:55:33.654Z,101108.72
2022-11-30T19:58:01.464Z,101117.38
2022-11-30T20:00:28.211Z,101113.06
2022-11-30T20:02:54.866Z,101122.66
2022-11-30T20:05:21.827Z,101120.91
2022-11-30T20:07:51.277Z,101118.22
2022-11-30T20:10:17.915Z,101116.56
2022-11-30T20:12:45.292Z,101122.66
2022-11-30T20:15:12.193Z,101113.06
2022-11-30T20:17:38.718Z,101124.25
2022-11-30T20:20:06.033Z,101117.28
2022-11-30T20:22:33.585Z,101120.78
2022-11-30T20:25:00.115Z,101131.31
2022-11-30T20:27:26.797Z,101123.41
2022-11-30T20:29:53.547Z,101123.47
2022-11-30T20:32:20.087Z,101119.00
2022-11-30T20:34:46.854Z,101119.06
2022-11-30T20:37:15.637Z,101134.78
2022-11-30T20:39:45.676Z,101108.78
2022-11-30T20:42:12.842Z,101127.06
2022-11-30T20:44:40.082Z,101116.66
2022-11-30T20:47:06.657Z,101118.41
2022-11-30T20:49:33.249Z,101105.50
2022-11-30T20:51:59.898Z,101102.00
2022-11-30T20:54:31.657Z,101117.59
2022-11-30T20:56:59.006Z,101086.31
2022-11-30T20:59:26.563Z,101133.16
2022-11-30T21:05:46.862Z,101124.22
2022-11-30T21:08:13.497Z,101130.25
2022-11-30T21:10:40.335Z,101134.72
2022-11-30T21:13:06.835Z,101134.69
2022-11-30T21:15:33.510Z,101106.06
2022-11-30T21:18:00.132Z,101135.66
2022-11-30T21:20:26.818Z,101136.50
2022-11-30T21:22:53.372Z,101126.88
2022-11-30T21:25:19.918Z,101134.88
2022-11-30T21:27:52.265Z,101131.28
2022-11-30T21:30:19.256Z,101126.09
2022-11-30T21:32:45.826Z,101135.63
2022-11-30T21:35:12.686Z,101125.13
2022-11-30T21:37:39.227Z,101135.69
2022-11-30T21:40:06.449Z,101136.47
2022-11-30T21:42:33.069Z,101125.97
2022-11-30T21:44:59.620Z,101139.97
2022-11-30T21:47:29.737Z,101099.16
2022-11-30T21:49:56.908Z,101127.72
2022-11-30T21:52:23.452Z,101126.78
2022-11-30T21:54:53.533Z,101124.00
2022-11-30T21:57:21.453Z,101121.44
2022-11-30T21:59:48.520Z,101126.69
2022-11-30T22:02:15.344Z,101125.72
2022-11-30T22:04:42.491Z,101125.81
2022-11-30T22:07:12.211Z,101127.50
2022-11-30T22:09:38.938Z,101134.44
2022-11-30T22:12:05.644Z,101130.06
2022-11-30T22:14:32.235Z,101132.63
2022-11-30T22:16:58.813Z,101131.84
2022-11-30T22:19:25.458Z,101133.56
2022-11-30T22:21:52.393Z,101130.84
2022-11-30T22:24:19.150Z,101135.28
2022-11-30T22:26:46.145Z,101131.66
2022-11-30T22:29:17.780Z,101120.59
2022-11-30T22:31:46.684Z,101132.78
2022-11-30T22:34:13.961Z,101113.81
2022-11-30T22:36:44.578Z,101146.00
2022-11-30T22:39:12.334Z,101132.91
2022-11-30T22:41:40.678Z,101140.75
2022-11-30T22:44:07.592Z,101139.81
2022-11-30T22:46:36.722Z,101139.94
2022-11-30T22:49:05.802Z,101140.00
2022-11-30T22:51:34.009Z,101140.00
2022-11-30T22:54:01.454Z,101145.41
2022-11-30T22:56:41.718Z,101141.06
2022-11-30T22:59:11.550Z,101147.28
2022-11-30T23:01:42.220Z,101144.72
2022-11-30T23:04:10.267Z,101149.97
2022-11-30T23:06:38.330Z,101149.13
2022-11-30T23:09:06.345Z,101145.88
2022-11-30T23:11:33.746Z,101151.09
2022-11-30T23:14:00.645Z,101152.94
2022-11-30T23:16:27.340Z,101138.19
2022-11-30T23:18:57.094Z,101114.97
2022-11-30T23:21:30.204Z,101149.03
2022-11-30T23:23:58.812Z,101145.56
2022-11-30T23:26:28.267Z,101136.81
2022-11-30T23:28:58.075Z,101143.75
2022-11-30T23:31:34.063Z,101143.81
2022-11-30T23:34:04.332Z,101126.53
2022-11-30T23:36:30.991Z,101144.69
2022-11-30T23:39:00.339Z,101129.97
2022-11-30T23:41:27.233Z,101142.88
2022-11-30T23:43:53.787Z,101139.41
2022-11-30T23:46:20.573Z,101147.44
2022-11-30T23:48:47.308Z,101142.44
2022-11-30T23:51:13.874Z,101154.75
2022-11-30T23:53:40.489Z,101142.59
2022-11-30T23:56:11.100Z,101142.75
2022-11-30T23:58:37.653Z,101144.66
